sensor_id;sensor_type;location;lat;lon;timestamp;P1;durP1;ratioP1;P2;durP2;ratioP2
70683;SDS011;58263;48.146;11.440;2024-01-30T00:01:16;30.10;;;9.10;;
70683;SDS011;58263;48.146;11.440;2024-01-30T00:03:41;25.93;;;9.27;;
70683;SDS011;58263;48.146;11.440;2024-01-30T00:06:07;24.70;;;9.07;;
70683;SDS011;58263;48.146;11.440;2024-01-30T00:08:33;22.77;;;7.75;;
70683;SDS011;58263;48.146;11.440;2024-01-30T00:10:59;17.88;;;7.35;;
70683;SDS011;58263;48.146;11.440;2024-01-30T00:13:24;14.57;;;6.87;;
70683;SDS011;58263;48.146;11.440;2024-01-30T00:15:49;21.70;;;7.67;;
70683;SDS011;58263;48.146;11.440;2024-01-30T00:18:21;20.37;;;7.23;;
70683;SDS011;58263;48.146;11.440;2024-01-30T00:20:49;16.02;;;7.50;;
70683;SDS011;58263;48.146;11.440;2024-01-30T00:23:14;16.60;;;7.30;;
70683;SDS011;58263;48.146;11.440;2024-01-30T00:25:39;18.87;;;7.37;;
70683;SDS011;58263;48.146;11.440;2024-01-30T00:28:05;11.03;;;6.17;;
70683;SDS011;58263;48.146;11.440;2024-01-30T00:30:30;10.40;;;6.23;;
70683;SDS011;58263;48.146;11.440;2024-01-30T00:32:55;14.63;;;6.80;;
70683;SDS011;58263;48.146;11.440;2024-01-30T00:35:20;14.73;;;6.73;;
70683;SDS011;58263;48.146;11.440;2024-01-30T00:37:47;17.15;;;7.32;;
70683;SDS011;58263;48.146;11.440;2024-01-30T00:40:13;19.77;;;6.88;;
70683;SDS011;58263;48.146;11.440;2024-01-30T00:42:41;13.60;;;7.50;;
70683;SDS011;58263;48.146;11.440;2024-01-30T00:45:11;11.40;;;6.20;;
70683;SDS011;58263;48.146;11.440;2024-01-30T00:47:37;12.80;;;6.15;;
70683;SDS011;58263;48.146;11.440;2024-01-30T00:50:02;13.73;;;7.30;;
70683;SDS011;58263;48.146;11.440;2024-01-30T00:52:28;15.05;;;7.00;;
70683;SDS011;58263;48.146;11.440;2024-01-30T00:54:53;13.17;;;6.23;;
70683;SDS011;58263;48.146;11.440;2024-01-30T00:57:18;14.10;;;6.47;;
70683;SDS011;58263;48.146;11.440;2024-01-30T00:59:44;13.03;;;5.97;;
70683;SDS011;58263;48.146;11.440;2024-01-30T01:02:09;11.00;;;6.20;;
70683;SDS011;58263;48.146;11.440;2024-01-30T01:04:34;11.37;;;5.77;;
70683;SDS011;58263;48.146;11.440;2024-01-30T01:06:59;11.47;;;5.63;;
70683;SDS011;58263;48.146;11.440;2024-01-30T01:09:25;9.68;;;4.80;;
70683;SDS011;58263;48.146;11.440;2024-01-30T01:11:51;8.82;;;4.85;;
70683;SDS011;58263;48.146;11.440;2024-01-30T01:14:16;8.33;;;4.73;;
70683;SDS011;58263;48.146;11.440;2024-01-30T01:16:42;10.13;;;4.83;;
70683;SDS011;58263;48.146;11.440;2024-01-30T01:19:07;8.45;;;4.63;;
70683;SDS011;58263;48.146;11.440;2024-01-30T01:21:32;10.60;;;5.17;;
70683;SDS011;58263;48.146;11.440;2024-01-30T01:23:57;11.10;;;5.37;;
70683;SDS011;58263;48.146;11.440;2024-01-30T01:26:23;10.37;;;5.03;;
70683;SDS011;58263;48.146;11.440;2024-01-30T01:28:48;9.40;;;4.77;;
70683;SDS011;58263;48.146;11.440;2024-01-30T01:31:13;9.80;;;4.87;;
70683;SDS011;58263;48.146;11.440;2024-01-30T01:33:39;7.30;;;4.10;;
70683;SDS011;58263;48.146;11.440;2024-01-30T01:36:04;6.87;;;4.13;;
70683;SDS011;58263;48.146;11.440;2024-01-30T01:38:29;7.82;;;4.05;;
70683;SDS011;58263;48.146;11.440;2024-01-30T01:40:54;6.90;;;4.87;;
70683;SDS011;58263;48.146;11.440;2024-01-30T01:43:20;9.07;;;3.70;;
70683;SDS011;58263;48.146;11.440;2024-01-30T01:45:45;10.40;;;4.37;;
70683;SDS011;58263;48.146;11.440;2024-01-30T01:48:10;7.57;;;4.00;;
70683;SDS011;58263;48.146;11.440;2024-01-30T01:50:37;9.07;;;4.05;;
70683;SDS011;58263;48.146;11.440;2024-01-30T01:53:03;11.15;;;3.80;;
70683;SDS011;58263;48.146;11.440;2024-01-30T01:55:30;8.73;;;4.82;;
70683;SDS011;58263;48.146;11.440;2024-01-30T01:57:56;11.52;;;4.47;;
70683;SDS011;58263;48.146;11.440;2024-01-30T02:00:21;7.38;;;4.00;;
70683;SDS011;58263;48.146;11.440;2024-01-30T02:02:48;6.28;;;4.03;;
70683;SDS011;58263;48.146;11.440;2024-01-30T02:05:15;8.65;;;4.65;;
70683;SDS011;58263;48.146;11.440;2024-01-30T02:07:41;7.10;;;4.65;;
70683;SDS011;58263;48.146;11.440;2024-01-30T02:10:08;8.27;;;4.18;;
70683;SDS011;58263;48.146;11.440;2024-01-30T02:12:34;7.07;;;3.72;;
70683;SDS011;58263;48.146;11.440;2024-01-30T02:15:00;8.80;;;3.93;;
70683;SDS011;58263;48.146;11.440;2024-01-30T02:17:25;8.03;;;4.33;;
70683;SDS011;58263;48.146;11.440;2024-01-30T02:19:51;6.13;;;3.60;;
70683;SDS011;58263;48.146;11.440;2024-01-30T02:22:17;7.05;;;3.72;;
70683;SDS011;58263;48.146;11.440;2024-01-30T02:24:43;6.60;;;3.83;;
70683;SDS011;58263;48.146;11.440;2024-01-30T02:27:08;9.87;;;4.00;;
70683;SDS011;58263;48.146;11.440;2024-01-30T02:29:33;6.90;;;3.73;;
70683;SDS011;58263;48.146;11.440;2024-01-30T02:31:59;9.23;;;4.03;;
70683;SDS011;58263;48.146;11.440;2024-01-30T02:34:24;7.63;;;3.87;;
70683;SDS011;58263;48.146;11.440;2024-01-30T02:36:49;9.47;;;4.40;;
70683;SDS011;58263;48.146;11.440;2024-01-30T02:39:14;6.67;;;4.17;;
70683;SDS011;58263;48.146;11.440;2024-01-30T02:41:40;6.43;;;3.80;;
70683;SDS011;58263;48.146;11.440;2024-01-30T02:44:05;28.43;;;11.70;;
70683;SDS011;58263;48.146;11.440;2024-01-30T02:46:30;9.67;;;4.50;;
70683;SDS011;58263;48.146;11.440;2024-01-30T02:48:55;8.33;;;3.90;;
70683;SDS011;58263;48.146;11.440;2024-01-30T02:51:21;6.28;;;4.03;;
70683;SDS011;58263;48.146;11.440;2024-01-30T02:53:46;8.95;;;4.15;;
70683;SDS011;58263;48.146;11.440;2024-01-30T02:56:11;6.93;;;3.70;;
70683;SDS011;58263;48.146;11.440;2024-01-30T02:58:38;6.45;;;3.65;;
70683;SDS011;58263;48.146;11.440;2024-01-30T03:01:04;8.25;;;4.35;;
70683;SDS011;58263;48.146;11.440;2024-01-30T03:03:29;6.65;;;4.13;;
70683;SDS011;58263;48.146;11.440;2024-01-30T03:05:55;7.97;;;4.13;;
70683;SDS011;58263;48.146;11.440;2024-01-30T03:08:20;7.63;;;3.77;;
70683;SDS011;58263;48.146;11.440;2024-01-30T03:10:46;5.38;;;3.60;;
70683;SDS011;58263;48.146;11.440;2024-01-30T03:13:11;6.93;;;4.00;;
70683;SDS011;58263;48.146;11.440;2024-01-30T03:15:36;7.77;;;4.30;;
70683;SDS011;58263;48.146;11.440;2024-01-30T03:18:02;6.67;;;3.80;;
70683;SDS011;58263;48.146;11.440;2024-01-30T03:20:28;6.00;;;3.75;;
70683;SDS011;58263;48.146;11.440;2024-01-30T03:22:55;11.05;;;4.55;;
70683;SDS011;58263;48.146;11.440;2024-01-30T03:25:20;6.57;;;3.95;;
70683;SDS011;58263;48.146;11.440;2024-01-30T03:27:45;6.57;;;3.83;;
70683;SDS011;58263;48.146;11.440;2024-01-30T03:30:11;7.20;;;3.33;;
70683;SDS011;58263;48.146;11.440;2024-01-30T03:32:36;7.83;;;3.90;;
70683;SDS011;58263;48.146;11.440;2024-01-30T03:35:01;6.77;;;3.80;;
70683;SDS011;58263;48.146;11.440;2024-01-30T03:37:26;5.70;;;3.47;;
70683;SDS011;58263;48.146;11.440;2024-01-30T03:39:52;5.57;;;3.67;;
70683;SDS011;58263;48.146;11.440;2024-01-30T03:42:17;10.67;;;3.10;;
70683;SDS011;58263;48.146;11.440;2024-01-30T03:44:42;8.67;;;3.77;;
70683;SDS011;58263;48.146;11.440;2024-01-30T03:47:07;7.53;;;4.10;;
70683;SDS011;58263;48.146;11.440;2024-01-30T03:49:33;7.50;;;3.80;;
70683;SDS011;58263;48.146;11.440;2024-01-30T03:51:58;10.30;;;3.70;;
70683;SDS011;58263;48.146;11.440;2024-01-30T03:54:23;8.33;;;3.80;;
70683;SDS011;58263;48.146;11.440;2024-01-30T03:56:49;7.37;;;3.83;;
70683;SDS011;58263;48.146;11.440;2024-01-30T03:59:14;7.47;;;3.83;;
70683;SDS011;58263;48.146;11.440;2024-01-30T04:01:39;6.27;;;3.20;;
70683;SDS011;58263;48.146;11.440;2024-01-30T04:04:04;5.70;;;4.00;;
70683;SDS011;58263;48.146;11.440;2024-01-30T04:06:30;5.77;;;2.90;;
70683;SDS011;58263;48.146;11.440;2024-01-30T04:08:55;10.50;;;4.87;;
70683;SDS011;58263;48.146;11.440;2024-01-30T04:11:20;7.73;;;3.63;;
70683;SDS011;58263;48.146;11.440;2024-01-30T04:13:45;6.57;;;3.77;;
70683;SDS011;58263;48.146;11.440;2024-01-30T04:16:22;7.38;;;3.88;;
70683;SDS011;58263;48.146;11.440;2024-01-30T04:18:47;6.80;;;3.78;;
70683;SDS011;58263;48.146;11.440;2024-01-30T04:21:13;6.20;;;3.63;;
70683;SDS011;58263;48.146;11.440;2024-01-30T04:23:39;6.13;;;4.05;;
70683;SDS011;58263;48.146;11.440;2024-01-30T04:28:32;7.77;;;4.03;;
70683;SDS011;58263;48.146;11.440;2024-01-30T04:30:57;7.27;;;3.73;;
70683;SDS011;58263;48.146;11.440;2024-01-30T04:33:23;7.23;;;4.37;;
70683;SDS011;58263;48.146;11.440;2024-01-30T04:35:48;9.03;;;3.97;;
70683;SDS011;58263;48.146;11.440;2024-01-30T04:38:13;7.73;;;3.90;;
70683;SDS011;58263;48.146;11.440;2024-01-30T04:40:39;7.78;;;4.32;;
70683;SDS011;58263;48.146;11.440;2024-01-30T04:43:05;7.32;;;4.22;;
70683;SDS011;58263;48.146;11.440;2024-01-30T04:45:30;5.80;;;3.80;;
70683;SDS011;58263;48.146;11.440;2024-01-30T04:47:55;6.00;;;3.63;;
70683;SDS011;58263;48.146;11.440;2024-01-30T04:50:21;8.77;;;3.93;;
70683;SDS011;58263;48.146;11.440;2024-01-30T04:52:46;8.00;;;3.90;;
70683;SDS011;58263;48.146;11.440;2024-01-30T04:55:11;6.63;;;3.50;;
70683;SDS011;58263;48.146;11.440;2024-01-30T04:57:36;5.43;;;3.47;;
70683;SDS011;58263;48.146;11.440;2024-01-30T05:00:02;8.83;;;3.50;;
70683;SDS011;58263;48.146;11.440;2024-01-30T05:02:28;10.30;;;3.85;;
70683;SDS011;58263;48.146;11.440;2024-01-30T05:04:53;8.97;;;4.77;;
70683;SDS011;58263;48.146;11.440;2024-01-30T05:07:18;6.60;;;4.00;;
70683;SDS011;58263;48.146;11.440;2024-01-30T05:09:44;7.63;;;4.07;;
70683;SDS011;58263;48.146;11.440;2024-01-30T05:12:09;6.73;;;3.97;;
70683;SDS011;58263;48.146;11.440;2024-01-30T05:14:34;6.23;;;4.10;;
70683;SDS011;58263;48.146;11.440;2024-01-30T05:16:59;6.20;;;4.07;;
70683;SDS011;58263;48.146;11.440;2024-01-30T05:19:25;7.10;;;4.17;;
70683;SDS011;58263;48.146;11.440;2024-01-30T05:21:50;5.30;;;4.07;;
70683;SDS011;58263;48.146;11.440;2024-01-30T05:24:15;6.63;;;3.97;;
70683;SDS011;58263;48.146;11.440;2024-01-30T05:26:40;7.90;;;3.93;;
70683;SDS011;58263;48.146;11.440;2024-01-30T05:29:06;6.35;;;3.75;;
70683;SDS011;58263;48.146;11.440;2024-01-30T05:31:32;7.88;;;4.03;;
70683;SDS011;58263;48.146;11.440;2024-01-30T05:33:57;5.83;;;3.67;;
70683;SDS011;58263;48.146;11.440;2024-01-30T05:36:23;5.83;;;3.60;;
70683;SDS011;58263;48.146;11.440;2024-01-30T05:38:48;8.33;;;4.10;;
70683;SDS011;58263;48.146;11.440;2024-01-30T05:41:13;6.63;;;4.03;;
70683;SDS011;58263;48.146;11.440;2024-01-30T05:43:39;9.57;;;4.80;;
70683;SDS011;58263;48.146;11.440;2024-01-30T05:46:04;6.97;;;3.75;;
70683;SDS011;58263;48.146;11.440;2024-01-30T05:48:29;6.10;;;3.50;;
70683;SDS011;58263;48.146;11.440;2024-01-30T05:50:55;9.02;;;3.88;;
70683;SDS011;58263;48.146;11.440;2024-01-30T05:53:21;6.05;;;3.70;;
70683;SDS011;58263;48.146;11.440;2024-01-30T05:55:46;6.30;;;3.90;;
70683;SDS011;58263;48.146;11.440;2024-01-30T05:58:12;6.40;;;4.00;;
70683;SDS011;58263;48.146;11.440;2024-01-30T06:00:37;9.80;;;5.60;;
70683;SDS011;58263;48.146;11.440;2024-01-30T06:03:02;7.43;;;4.40;;
70683;SDS011;58263;48.146;11.440;2024-01-30T06:05:27;5.40;;;3.90;;
70683;SDS011;58263;48.146;11.440;2024-01-30T06:07:53;8.43;;;3.70;;
70683;SDS011;58263;48.146;11.440;2024-01-30T06:10:18;8.23;;;4.35;;
70683;SDS011;58263;48.146;11.440;2024-01-30T06:12:44;7.72;;;4.10;;
70683;SDS011;58263;48.146;11.440;2024-01-30T06:15:09;7.23;;;4.17;;
70683;SDS011;58263;48.146;11.440;2024-01-30T06:17:35;10.75;;;4.43;;
70683;SDS011;58263;48.146;11.440;2024-01-30T06:20:00;10.83;;;4.43;;
70683;SDS011;58263;48.146;11.440;2024-01-30T06:22:25;7.13;;;3.93;;
70683;SDS011;58263;48.146;11.440;2024-01-30T06:24:50;8.90;;;4.10;;
70683;SDS011;58263;48.146;11.440;2024-01-30T06:27:16;11.53;;;5.17;;
70683;SDS011;58263;48.146;11.440;2024-01-30T06:29:42;10.45;;;5.45;;
70683;SDS011;58263;48.146;11.440;2024-01-30T06:32:08;8.02;;;4.28;;
70683;SDS011;58263;48.146;11.440;2024-01-30T06:34:33;11.70;;;5.40;;
70683;SDS011;58263;48.146;11.440;2024-01-30T06:36:58;11.90;;;5.77;;
70683;SDS011;58263;48.146;11.440;2024-01-30T06:39:24;14.47;;;6.13;;
70683;SDS011;58263;48.146;11.440;2024-01-30T06:41:50;9.93;;;5.60;;
70683;SDS011;58263;48.146;11.440;2024-01-30T06:44:15;14.43;;;5.70;;
70683;SDS011;58263;48.146;11.440;2024-01-30T06:46:40;11.77;;;5.13;;
70683;SDS011;58263;48.146;11.440;2024-01-30T06:49:06;8.67;;;5.10;;
70683;SDS011;58263;48.146;11.440;2024-01-30T06:51:31;13.47;;;4.87;;
70683;SDS011;58263;48.146;11.440;2024-01-30T06:53:56;10.77;;;5.23;;
70683;SDS011;58263;48.146;11.440;2024-01-30T06:56:21;21.43;;;10.60;;
70683;SDS011;58263;48.146;11.440;2024-01-30T06:58:47;16.27;;;6.90;;
70683;SDS011;58263;48.146;11.440;2024-01-30T07:01:14;16.00;;;5.82;;
70683;SDS011;58263;48.146;11.440;2024-01-30T07:03:39;9.98;;;5.55;;
70683;SDS011;58263;48.146;11.440;2024-01-30T07:06:05;9.57;;;5.70;;
70683;SDS011;58263;48.146;11.440;2024-01-30T07:08:30;12.93;;;5.43;;
70683;SDS011;58263;48.146;11.440;2024-01-30T07:10:55;9.17;;;5.07;;
70683;SDS011;58263;48.146;11.440;2024-01-30T07:13:21;12.63;;;5.90;;
70683;SDS011;58263;48.146;11.440;2024-01-30T07:15:46;9.83;;;4.90;;
70683;SDS011;58263;48.146;11.440;2024-01-30T07:18:11;9.93;;;4.90;;
70683;SDS011;58263;48.146;11.440;2024-01-30T07:20:38;11.88;;;5.57;;
70683;SDS011;58263;48.146;11.440;2024-01-30T07:23:07;14.25;;;5.28;;
70683;SDS011;58263;48.146;11.440;2024-01-30T07:25:32;10.93;;;5.50;;
70683;SDS011;58263;48.146;11.440;2024-01-30T07:28:01;10.52;;;4.97;;
70683;SDS011;58263;48.146;11.440;2024-01-30T07:30:27;11.05;;;6.18;;
70683;SDS011;58263;48.146;11.440;2024-01-30T07:32:52;11.07;;;4.87;;
70683;SDS011;58263;48.146;11.440;2024-01-30T07:35:17;14.00;;;6.50;;
70683;SDS011;58263;48.146;11.440;2024-01-30T07:37:42;9.77;;;5.40;;
70683;SDS011;58263;48.146;11.440;2024-01-30T07:40:08;11.80;;;5.77;;
70683;SDS011;58263;48.146;11.440;2024-01-30T07:42:33;12.65;;;5.53;;
70683;SDS011;58263;48.146;11.440;2024-01-30T07:44:59;15.03;;;7.20;;
70683;SDS011;58263;48.146;11.440;2024-01-30T07:47:25;14.23;;;6.43;;
70683;SDS011;58263;48.146;11.440;2024-01-30T07:49:50;11.87;;;5.93;;
70683;SDS011;58263;48.146;11.440;2024-01-30T07:52:16;12.48;;;6.18;;
70683;SDS011;58263;48.146;11.440;2024-01-30T07:54:41;13.60;;;5.60;;
70683;SDS011;58263;48.146;11.440;2024-01-30T07:57:07;12.40;;;5.37;;
70683;SDS011;58263;48.146;11.440;2024-01-30T07:59:32;8.67;;;4.30;;
70683;SDS011;58263;48.146;11.440;2024-01-30T08:01:57;11.57;;;5.37;;
70683;SDS011;58263;48.146;11.440;2024-01-30T08:04:22;11.33;;;4.77;;
70683;SDS011;58263;48.146;11.440;2024-01-30T08:06:48;12.70;;;4.90;;
70683;SDS011;58263;48.146;11.440;2024-01-30T08:09:13;10.17;;;5.10;;
70683;SDS011;58263;48.146;11.440;2024-01-30T08:11:39;9.50;;;4.50;;
70683;SDS011;58263;48.146;11.440;2024-01-30T08:14:04;13.77;;;4.80;;
70683;SDS011;58263;48.146;11.440;2024-01-30T08:16:30;7.30;;;4.20;;
70683;SDS011;58263;48.146;11.440;2024-01-30T08:18:55;7.93;;;4.30;;
70683;SDS011;58263;48.146;11.440;2024-01-30T08:21:22;7.38;;;4.38;;
70683;SDS011;58263;48.146;11.440;2024-01-30T08:23:47;6.50;;;3.80;;
70683;SDS011;58263;48.146;11.440;2024-01-30T08:26:13;8.10;;;4.43;;
70683;SDS011;58263;48.146;11.440;2024-01-30T08:28:38;8.33;;;4.07;;
70683;SDS011;58263;48.146;11.440;2024-01-30T08:31:03;13.67;;;3.90;;
70683;SDS011;58263;48.146;11.440;2024-01-30T08:33:28;7.35;;;3.35;;
70683;SDS011;58263;48.146;11.440;2024-01-30T08:35:54;6.57;;;3.70;;
70683;SDS011;58263;48.146;11.440;2024-01-30T08:38:19;11.53;;;3.70;;
70683;SDS011;58263;48.146;11.440;2024-01-30T08:40:44;7.67;;;4.17;;
70683;SDS011;58263;48.146;11.440;2024-01-30T08:43:09;6.87;;;3.60;;
70683;SDS011;58263;48.146;11.440;2024-01-30T08:45:35;5.68;;;3.63;;
70683;SDS011;58263;48.146;11.440;2024-01-30T08:48:00;10.00;;;3.58;;
70683;SDS011;58263;48.146;11.440;2024-01-30T08:50:25;7.60;;;3.33;;
70683;SDS011;58263;48.146;11.440;2024-01-30T08:52:51;4.70;;;3.53;;
70683;SDS011;58263;48.146;11.440;2024-01-30T08:55:16;8.27;;;4.27;;
70683;SDS011;58263;48.146;11.440;2024-01-30T08:57:41;6.10;;;3.43;;
70683;SDS011;58263;48.146;11.440;2024-01-30T09:00:07;7.30;;;3.47;;
70683;SDS011;58263;48.146;11.440;2024-01-30T09:02:34;7.75;;;3.78;;
70683;SDS011;58263;48.146;11.440;2024-01-30T09:04:59;6.22;;;3.65;;
70683;SDS011;58263;48.146;11.440;2024-01-30T09:07:25;7.70;;;3.90;;
70683;SDS011;58263;48.146;11.440;2024-01-30T09:09:50;7.50;;;3.67;;
70683;SDS011;58263;48.146;11.440;2024-01-30T09:12:15;6.50;;;3.70;;
70683;SDS011;58263;48.146;11.440;2024-01-30T09:14:40;8.13;;;3.83;;
70683;SDS011;58263;48.146;11.440;2024-01-30T09:17:06;8.57;;;4.45;;
70683;SDS011;58263;48.146;11.440;2024-01-30T09:19:31;9.27;;;3.90;;
70683;SDS011;58263;48.146;11.440;2024-01-30T09:21:57;7.47;;;4.10;;
70683;SDS011;58263;48.146;11.440;2024-01-30T09:24:22;7.30;;;4.07;;
70683;SDS011;58263;48.146;11.440;2024-01-30T09:26:47;9.03;;;4.27;;
70683;SDS011;58263;48.146;11.440;2024-01-30T09:29:13;8.90;;;4.63;;
70683;SDS011;58263;48.146;11.440;2024-01-30T09:31:38;10.67;;;4.60;;
70683;SDS011;58263;48.146;11.440;2024-01-30T09:34:03;7.77;;;4.17;;
70683;SDS011;58263;48.146;11.440;2024-01-30T09:36:28;10.27;;;5.27;;
70683;SDS011;58263;48.146;11.440;2024-01-30T09:38:54;12.27;;;4.97;;
70683;SDS011;58263;48.146;11.440;2024-01-30T09:41:19;6.60;;;4.20;;
70683;SDS011;58263;48.146;11.440;2024-01-30T09:43:48;8.60;;;4.28;;
70683;SDS011;58263;48.146;11.440;2024-01-30T09:46:16;11.80;;;4.80;;
70683;SDS011;58263;48.146;11.440;2024-01-30T09:48:43;7.18;;;4.35;;
70683;SDS011;58263;48.146;11.440;2024-01-30T09:51:11;8.18;;;4.18;;
70683;SDS011;58263;48.146;11.440;2024-01-30T09:53:39;8.32;;;3.50;;
70683;SDS011;58263;48.146;11.440;2024-01-30T09:56:05;5.93;;;3.80;;
70683;SDS011;58263;48.146;11.440;2024-01-30T09:58:30;9.43;;;3.85;;
70683;SDS011;58263;48.146;11.440;2024-01-30T10:00:55;8.87;;;3.63;;
70683;SDS011;58263;48.146;11.440;2024-01-30T10:03:21;6.93;;;3.17;;
70683;SDS011;58263;48.146;11.440;2024-01-30T10:05:50;12.90;;;4.67;;
70683;SDS011;58263;48.146;11.440;2024-01-30T10:08:17;7.80;;;4.65;;
70683;SDS011;58263;48.146;11.440;2024-01-30T10:10:45;9.77;;;4.28;;
70683;SDS011;58263;48.146;11.440;2024-01-30T10:13:11;7.47;;;4.07;;
70683;SDS011;58263;48.146;11.440;2024-01-30T10:15:37;8.10;;;4.47;;
70683;SDS011;58263;48.146;11.440;2024-01-30T10:18:03;10.45;;;5.13;;
70683;SDS011;58263;48.146;11.440;2024-01-30T10:20:33;7.75;;;4.47;;
70683;SDS011;58263;48.146;11.440;2024-01-30T10:22:59;6.13;;;3.53;;
70683;SDS011;58263;48.146;11.440;2024-01-30T10:25:25;7.65;;;4.22;;
70683;SDS011;58263;48.146;11.440;2024-01-30T10:27:54;6.60;;;3.95;;
70683;SDS011;58263;48.146;11.440;2024-01-30T10:30:23;5.03;;;3.47;;
70683;SDS011;58263;48.146;11.440;2024-01-30T10:32:49;6.40;;;3.38;;
70683;SDS011;58263;48.146;11.440;2024-01-30T10:35:14;7.05;;;3.78;;
70683;SDS011;58263;48.146;11.440;2024-01-30T10:37:41;9.95;;;3.40;;
70683;SDS011;58263;48.146;11.440;2024-01-30T10:40:08;8.48;;;3.28;;
70683;SDS011;58263;48.146;11.440;2024-01-30T10:45:07;7.70;;;4.03;;
70683;SDS011;58263;48.146;11.440;2024-01-30T10:47:34;7.60;;;2.95;;
70683;SDS011;58263;48.146;11.440;2024-01-30T10:50:04;4.53;;;2.97;;
70683;SDS011;58263;48.146;11.440;2024-01-30T10:52:30;6.28;;;2.83;;
70683;SDS011;58263;48.146;11.440;2024-01-30T10:54:57;6.95;;;2.47;;
70683;SDS011;58263;48.146;11.440;2024-01-30T10:57:23;3.50;;;2.15;;
70683;SDS011;58263;48.146;11.440;2024-01-30T10:59:49;7.00;;;2.20;;
70683;SDS011;58263;48.146;11.440;2024-01-30T11:02:18;5.47;;;1.88;;
70683;SDS011;58263;48.146;11.440;2024-01-30T11:04:43;3.10;;;1.90;;
70683;SDS011;58263;48.146;11.440;2024-01-30T11:07:17;5.03;;;2.00;;
70683;SDS011;58263;48.146;11.440;2024-01-30T11:09:50;5.82;;;3.03;;
70683;SDS011;58263;48.146;11.440;2024-01-30T11:12:16;4.47;;;1.77;;
70683;SDS011;58263;48.146;11.440;2024-01-30T11:14:41;3.10;;;1.83;;
70683;SDS011;58263;48.146;11.440;2024-01-30T11:17:08;2.53;;;1.77;;
70683;SDS011;58263;48.146;11.440;2024-01-30T11:19:35;3.83;;;1.88;;
70683;SDS011;58263;48.146;11.440;2024-01-30T11:22:00;1.75;;;1.42;;
70683;SDS011;58263;48.146;11.440;2024-01-30T11:24:25;3.78;;;2.25;;
70683;SDS011;58263;48.146;11.440;2024-01-30T11:27:01;4.30;;;2.20;;
70683;SDS011;58263;48.146;11.440;2024-01-30T11:29:28;3.30;;;1.83;;
70683;SDS011;58263;48.146;11.440;2024-01-30T11:31:57;4.00;;;2.30;;
70683;SDS011;58263;48.146;11.440;2024-01-30T11:34:23;3.75;;;2.75;;
70683;SDS011;58263;48.146;11.440;2024-01-30T11:36:52;3.80;;;2.00;;
70683;SDS011;58263;48.146;11.440;2024-01-30T11:39:23;5.13;;;2.03;;
70683;SDS011;58263;48.146;11.440;2024-01-30T11:41:50;6.40;;;2.15;;
70683;SDS011;58263;48.146;11.440;2024-01-30T11:44:16;2.42;;;2.05;;
70683;SDS011;58263;48.146;11.440;2024-01-30T11:46:41;3.77;;;2.40;;
70683;SDS011;58263;48.146;11.440;2024-01-30T11:49:06;6.27;;;2.40;;
70683;SDS011;58263;48.146;11.440;2024-01-30T11:51:32;5.65;;;2.20;;
70683;SDS011;58263;48.146;11.440;2024-01-30T11:53:58;5.55;;;2.50;;
70683;SDS011;58263;48.146;11.440;2024-01-30T11:56:26;3.27;;;2.70;;
70683;SDS011;58263;48.146;11.440;2024-01-30T11:58:51;2.30;;;2.10;;
70683;SDS011;58263;48.146;11.440;2024-01-30T12:01:17;4.93;;;2.73;;
70683;SDS011;58263;48.146;11.440;2024-01-30T12:03:42;8.75;;;4.70;;
70683;SDS011;58263;48.146;11.440;2024-01-30T12:06:08;5.47;;;2.70;;
70683;SDS011;58263;48.146;11.440;2024-01-30T12:08:33;3.00;;;2.17;;
70683;SDS011;58263;48.146;11.440;2024-01-30T12:10:58;4.73;;;2.67;;
70683;SDS011;58263;48.146;11.440;2024-01-30T12:13:26;2.10;;;1.77;;
70683;SDS011;58263;48.146;11.440;2024-01-30T12:15:51;3.35;;;2.00;;
70683;SDS011;58263;48.146;11.440;2024-01-30T12:18:20;2.80;;;1.90;;
70683;SDS011;58263;48.146;11.440;2024-01-30T12:20:45;2.63;;;1.80;;
70683;SDS011;58263;48.146;11.440;2024-01-30T12:23:11;2.40;;;1.70;;
70683;SDS011;58263;48.146;11.440;2024-01-30T12:25:37;2.17;;;1.65;;
70683;SDS011;58263;48.146;11.440;2024-01-30T12:28:03;2.70;;;1.75;;
70683;SDS011;58263;48.146;11.440;2024-01-30T12:30:29;2.88;;;1.80;;
70683;SDS011;58263;48.146;11.440;2024-01-30T12:32:54;1.77;;;1.67;;
70683;SDS011;58263;48.146;11.440;2024-01-30T12:35:20;6.07;;;2.03;;
70683;SDS011;58263;48.146;11.440;2024-01-30T12:37:46;3.53;;;1.70;;
70683;SDS011;58263;48.146;11.440;2024-01-30T12:40:13;4.03;;;1.70;;
70683;SDS011;58263;48.146;11.440;2024-01-30T12:42:43;2.88;;;1.95;;
70683;SDS011;58263;48.146;11.440;2024-01-30T12:45:13;2.20;;;1.60;;
70683;SDS011;58263;48.146;11.440;2024-01-30T12:47:46;4.18;;;1.70;;
70683;SDS011;58263;48.146;11.440;2024-01-30T12:50:12;2.08;;;1.60;;
70683;SDS011;58263;48.146;11.440;2024-01-30T12:52:40;3.65;;;1.88;;
70683;SDS011;58263;48.146;11.440;2024-01-30T12:55:05;8.05;;;1.92;;
70683;SDS011;58263;48.146;11.440;2024-01-30T12:57:31;5.13;;;1.60;;
70683;SDS011;58263;48.146;11.440;2024-01-30T12:59:56;3.30;;;1.80;;
70683;SDS011;58263;48.146;11.440;2024-01-30T13:02:21;4.93;;;1.83;;
70683;SDS011;58263;48.146;11.440;2024-01-30T13:04:47;2.88;;;2.22;;
70683;SDS011;58263;48.146;11.440;2024-01-30T13:07:12;2.20;;;1.90;;
70683;SDS011;58263;48.146;11.440;2024-01-30T13:09:38;6.30;;;1.73;;
70683;SDS011;58263;48.146;11.440;2024-01-30T13:12:03;2.40;;;1.70;;
70683;SDS011;58263;48.146;11.440;2024-01-30T13:14:28;2.08;;;1.50;;
70683;SDS011;58263;48.146;11.440;2024-01-30T13:16:54;2.93;;;1.47;;
70683;SDS011;58263;48.146;11.440;2024-01-30T13:19:19;2.15;;;1.95;;
70683;SDS011;58263;48.146;11.440;2024-01-30T13:21:44;4.27;;;1.87;;
70683;SDS011;58263;48.146;11.440;2024-01-30T13:24:10;2.37;;;1.90;;
70683;SDS011;58263;48.146;11.440;2024-01-30T13:26:35;2.27;;;1.47;;
70683;SDS011;58263;48.146;11.440;2024-01-30T13:29:01;3.42;;;1.50;;
70683;SDS011;58263;48.146;11.440;2024-01-30T13:31:26;1.60;;;1.40;;
70683;SDS011;58263;48.146;11.440;2024-01-30T13:33:52;1.98;;;1.80;;
70683;SDS011;58263;48.146;11.440;2024-01-30T13:36:18;3.75;;;1.70;;
70683;SDS011;58263;48.146;11.440;2024-01-30T13:38:43;4.68;;;1.90;;
70683;SDS011;58263;48.146;11.440;2024-01-30T13:41:08;2.67;;;1.80;;
70683;SDS011;58263;48.146;11.440;2024-01-30T13:43:34;4.30;;;1.80;;
70683;SDS011;58263;48.146;11.440;2024-01-30T13:45:59;2.50;;;2.03;;
70683;SDS011;58263;48.146;11.440;2024-01-30T13:48:24;2.13;;;1.55;;
70683;SDS011;58263;48.146;11.440;2024-01-30T13:50:50;2.17;;;1.60;;
70683;SDS011;58263;48.146;11.440;2024-01-30T13:53:15;1.83;;;1.70;;
70683;SDS011;58263;48.146;11.440;2024-01-30T13:55:40;1.50;;;1.20;;
70683;SDS011;58263;48.146;11.440;2024-01-30T13:58:06;2.80;;;1.50;;
70683;SDS011;58263;48.146;11.440;2024-01-30T14:00:32;1.85;;;1.60;;
70683;SDS011;58263;48.146;11.440;2024-01-30T14:02:58;3.45;;;1.85;;
70683;SDS011;58263;48.146;11.440;2024-01-30T14:05:24;3.42;;;2.08;;
70683;SDS011;58263;48.146;11.440;2024-01-30T14:07:50;4.00;;;1.90;;
70683;SDS011;58263;48.146;11.440;2024-01-30T14:10:17;4.75;;;1.70;;
70683;SDS011;58263;48.146;11.440;2024-01-30T14:12:42;4.10;;;1.63;;
70683;SDS011;58263;48.146;11.440;2024-01-30T14:15:09;3.28;;;1.73;;
70683;SDS011;58263;48.146;11.440;2024-01-30T14:17:35;1.70;;;1.60;;
70683;SDS011;58263;48.146;11.440;2024-01-30T14:20:00;2.33;;;1.98;;
70683;SDS011;58263;48.146;11.440;2024-01-30T14:22:27;13.55;;;2.35;;
70683;SDS011;58263;48.146;11.440;2024-01-30T14:24:53;9.57;;;2.30;;
70683;SDS011;58263;48.146;11.440;2024-01-30T14:27:18;3.53;;;2.00;;